Airfield :
LOGIN :

Register | Disclaimer

   EN    FR    IT 

 










Legend :    VFR   Marginal VFR   IFR   Intensive IFR   Very Intensive IFR
Visi :
Ceiling :
>= 8 km
>= 3000ft
5 to 8 km
1000 to 3000 ft
1500m to 5 km
500 to 1000 ft
800 to 1500m
200 to 500 ft
< 800m
< 200 ft
Symbols :   Thunderstorms  Fog  Heavy snow  Heavy precipitations  Wind > 20 kt
SIGMETs :     Misc.  Thunderstorms  Icing  Turbulence  Mountain Waves  Volcanic Ashes







- Airport Elevation : 412 ft
- IATA code : ORE
- Download approach charts


LFOJ - Orleans

CURRENT METAR :
  • 272300Z AUTO 00000KT CAVOK 19/15 Q1016

EXPIRED METARs :
  • 272230Z AUTO 28001KT CAVOK 19/15 Q1016
  • 272200Z AUTO 16001KT CAVOK 19/15 Q1016
  • 272130Z AUTO 16003KT CAVOK 19/15 Q1016
  • 272100Z AUTO 17005KT CAVOK 20/16 Q1016
  • 272030Z AUTO 15006KT CAVOK 20/16 Q1016

TAF TAF LFOJ
Valid from the 27 at 15:00 until the 28 at 15:00 UTC


271400Z 2715/2815 01006KT CAVOK
TEMPO 2715/2720 4000 SHRA SCT050TCU
PROB40
TEMPO 2715/2720 VRB10G25KT 3000 TSRA BKN060CB
TEMPO 2800/2803 -SHRA BKN080TCU
No reported NOTAMs for that airfield.
2 SIGMETs reported for the Paris FIR (LFFF) :
 
Embedded thunderstorms
LFFF SIGMET 11 VALID 272300/280200 LFPW
LFFF PARIS FIR/UIR EMBD TS OBS NE OF LINE N5015 E00030 - N4800 E00500 TOP FL380 STNR WKN=
Embedded thunderstorms
LFFF SIGMET 10 VALID 272200/272300 LFPW
LFFF PARIS FIR/UIR EMBD TS OBS WI N5030 E00330 - N4945 E00515 - N4845 E00415 - N4930 E00130 - N5030 E00100 - N5030 E00330 TOP FL370 MOV N 10KT NC=



MET'MAP, your aeronautical weather chart ! - Copyright ORBIFLY December 2007 - Disclaimer

ORBIFLY MET'MAP TEAM :

Programming & Development : Alexandra Zaïnal
Concept & Development : Baudouin d'Aumeries
Co-Development & Prog : Marc-Olivier Méhu
Technical & hardware support : Manuel Goepfert

Contact : metmap@orbifly.com




SOURCES & CREDITS :

   NOAA